• Join FlightAware (Why Join?)
  • Login
  • US Flag 
07:24AM EDT


 

Airport Tracker/Info


-or-


 

Live Flight TrackerFlight Track Log ✈ ASQ5958 ✈ 03-Jul-2013 ✈ KDEN - KAMA

Flight Track Log - Related Links

Times and Time Zones

All times are in EDT time to prevent confusion due to time zone crossing. See the ASQ5958 flight status page for this flight to view local times or setup timezone preferences in your user account.

Time Position Orientation Groundspeed Altitude Reporting Facility
EDT Latitude Longitude Course Direction KTS MPH feet Rate Location/Type
09:47PM 39.8833 -104.6000 108° East 183 211 6,400  Level Denver TRACON
09:48PM 39.8500 -104.5333 123° Southeast 238 274 7,800 1,860 Climbing Denver TRACON
09:49PM 39.8325 -104.4581 107° East 250 288 10,000 1,740 Climbing Denver Center
09:50PM 39.7792 -104.0791 105° East  Level FlightAware Approximate
09:50PM 39.8086 -104.3633 108° East 283 326 11,200  Level Denver Center
09:51PM 39.7645 -103.9325 99° East  Level FlightAware Approximate
09:51PM 39.7972 -104.2347 97° East 339 390 12,400  Level Denver Center
09:52PM 39.7425 -103.7867 108° East  Level FlightAware Approximate
09:52PM 39.7825 -104.1031 98° East 366 421 13,900  Level Denver Center
09:53PM 39.7678 -103.9683 98° East 372 428 16,100 2,280 Climbing Denver Center
09:54PM 39.7500 -103.8289 99° East 354 407 18,700 1,740 Climbing Denver Center
09:55PM 39.7153 -103.7244 113° Southeast 361 415 19,800 1,140 Climbing Denver Center
09:56PM 39.6628 -103.5686 114° Southeast 392 451 21,100 1,260 Climbing Denver Center
09:57PM 39.6164 -103.4339 114° Southeast 406 467 22,500 1,380 Climbing Denver Center
09:58PM 39.5689 -103.2997 115° Southeast 409 471 24,000 1,500 Climbing Denver Center
09:59PM 39.5225 -103.1653 114° Southeast 410 472 25,700 1,560 Climbing Denver Center
10:00PM 39.4764 -103.0328 114° Southeast 406 467 27,300 1,440 Climbing Denver Center
10:01PM 39.4289 -102.8997 115° Southeast 407 468 28,700 1,440 Climbing Denver Center
10:02PM 39.3728 -102.7403 114° Southeast 406 467 30,300 1,320 Climbing Denver Center
10:03PM 39.3289 -102.6183 115° Southeast 416 479 31,500 1,200 Climbing Denver Center
10:04PM 39.2744 -102.4661 115° Southeast 419 482 32,900 720 Climbing Denver Center
10:05PM 39.2256 -102.3283 115° Southeast 440 506 33,000  Climbing Denver Center
10:06PM 39.1633 -102.1572 115° Southeast 472 543 33,000  Level Denver Center
10:07PM 39.0736 -102.0319 133° Southeast 516 594 33,000  Level Denver Center
10:08PM 38.9136 -101.9964 170° South 532 612 33,000  Level Denver Center
10:09PM 38.7722 -101.9839 176° South 532 612 33,000  Level Denver Center
10:10PM 38.6067 -101.9708 176° South 535 616 33,000  Level Denver Center
10:12PM 38.4403 -101.9561 176° South 536 617 33,000  Level Denver Center
10:13PM 38.2736 -101.9436 177° South 537 618 33,000  Level Denver Center
10:14PM 38.1319 -101.9311 176° South 536 617 33,000  Level Denver Center
10:15PM 37.9647 -101.9178 176° South 539 620 33,000  Level Denver Center
10:16PM 37.8219 -101.9053 176° South 538 619 33,000  Level Denver Center
10:17PM 37.6558 -101.8919 176° South 538 619 33,000  Level Denver Center
10:18PM 37.5128 -101.8803 176° South 539 620 33,000  Level Denver Center
10:19PM 37.3450 -101.8661 176° South 541 623 33,000  Level Denver Center
10:19PM 37.2508 -101.8592 177° South 538 619 33,000  Level Albuquerque Center
10:20PM 37.1556 -101.8514 176° South 540 621 33,000  Level Kansas City Center
10:21PM 36.9881 -101.8381 176° South 541 623 33,000 -120 Level Kansas City Center
10:22PM 36.8447 -101.8269 176° South 540 621 32,800 -840 Descending Kansas City Center
10:23PM 36.6789 -101.8128 176° South 537 618 31,400 -1,560 Descending Kansas City Center
10:24PM 36.5317 -101.8014 176° South 533 613 29,700 -2,340 Descending Kansas City Center
10:25PM 36.3875 -101.7917 177° South 524 603 26,700 -3,000 Descending Kansas City Center
10:26PM 36.2461 -101.7811 177° South 514 592 23,700 -2,760 Descending Kansas City Center
10:27PM 36.1092 -101.7692 176° South 499 574 21,100 -2,460 Descending Kansas City Center
10:28PM 35.9803 -101.7581 176° South 471 542 18,700 -2,520 Descending Kansas City Center
10:30PM 35.8136 -101.7431 176° South 433 498 15,300 -2,700 Descending Albuquerque Center
10:31PM 35.7050 -101.7347 176° South 398 458 12,500 -2,460 Descending Albuquerque Center
10:32PM 35.6106 -101.6847 157° South 370 426 10,300 -1,500 Descending Albuquerque Center
10:33PM 35.5319 -101.6414 156° South 313 360 9,500 -1,320 Descending Albuquerque Center
10:34PM 35.4578 -101.5989 155° Southeast 298 343 7,700 -1,440 Descending Albuquerque Center
10:35PM 35.3889 -101.5642 158° South 277 319 6,600 -900 Descending Albuquerque Center
10:36PM 35.3269 -101.5786 191° South 253 291 5,900 -720 Descending Albuquerque Center